Time;durP1;ratioP1;P1;durP2;ratioP2;P2;SDS_P1;SDS_P2;PMS_P1;PMS_P2;Temp;Humidity;BMP_temperature;BMP_pressure;BME280_temperature;BME280_humidity;BME280_pressure;Samples;Min_cycle;Max_cycle;Signal;HPM_P1;HPM_P2
2021/06/12 00:00:10;;;;;;;22.98;14.98;;;;;;;18.72;86.36;101373.75;5023579;28;20076;-86
2021/06/12 00:02:37;;;;;;;20.58;14.00;;;;;;;18.68;86.84;101371.66;5026516;28;20569;-85
2021/06/12 00:05:05;;;;;;;21.77;14.82;;;;;;;18.70;86.26;101367.69;5005544;28;20046;-84
2021/06/12 00:07:31;;;;;;;23.65;14.70;;;;;;;18.76;85.53;101362.50;5004736;28;20038;-84
2021/06/12 00:09:58;;;;;;;21.17;14.45;;;;;;;18.74;86.12;101364.59;5026744;28;20044;-86
2021/06/12 00:12:25;;;;;;;22.05;14.98;;;;;;;18.70;86.21;101364.97;5036295;28;20450;-85
2021/06/12 00:14:51;;;;;;;22.85;15.60;;;;;;;18.79;85.23;101379.25;5022470;28;20033;-87
2021/06/12 00:17:18;;;;;;;24.90;14.60;;;;;;;18.62;87.20;101369.75;5018066;28;20042;-83
2021/06/12 00:19:49;;;;;;;24.95;15.32;;;;;;;18.66;86.39;101368.28;5034939;28;20054;-85
2021/06/12 00:22:14;;;;;;;21.67;15.07;;;;;;;18.69;85.88;101371.44;5025194;28;20049;-84
2021/06/12 00:24:40;;;;;;;23.55;14.77;;;;;;;18.59;87.10;101365.56;5040872;28;20041;-85
2021/06/12 00:27:15;;;;;;;22.42;15.10;;;;;;;18.65;86.00;101369.34;5039229;28;20100;-85
2021/06/12 00:29:44;;;;;;;21.20;13.95;;;;;;;18.66;86.23;101366.41;5009329;28;20367;-87
2021/06/12 00:32:15;;;;;;;21.38;15.18;;;;;;;18.60;86.91;101363.69;5013671;28;20084;-87
2021/06/12 00:34:41;;;;;;;23.23;15.43;;;;;;;18.60;86.60;101369.13;5017732;28;20038;-85
2021/06/12 00:37:06;;;;;;;21.90;14.32;;;;;;;18.56;87.41;101367.81;5025498;28;20377;-84
2021/06/12 00:39:33;;;;;;;20.17;14.52;;;;;;;18.49;87.74;101365.09;5021593;28;20527;-85
2021/06/12 00:41:59;;;;;;;20.15;14.27;;;;;;;18.43;88.29;101361.28;5020662;28;20037;-84
2021/06/12 00:44:25;;;;;;;22.23;14.93;;;;;;;18.38;88.45;101363.78;5045446;28;20065;-86
2021/06/12 00:46:50;;;;;;;23.67;15.32;;;;;;;18.45;87.47;101366.53;5028023;28;20045;-86
2021/06/12 00:49:15;;;;;;;22.02;13.80;;;;;;;18.41;88.11;101354.38;5028926;28;20069;-85
2021/06/12 00:51:41;;;;;;;19.13;13.90;;;;;;;18.37;88.23;101347.69;5009004;28;20582;-85
2021/06/12 00:54:06;;;;;;;21.48;14.15;;;;;;;18.33;88.68;101347.28;5012128;28;20054;-87
2021/06/12 00:56:33;;;;;;;23.70;14.40;;;;;;;18.31;89.11;101338.47;5026973;28;20030;-83
2021/06/12 00:59:00;;;;;;;21.83;14.23;;;;;;;18.32;88.56;101347.44;5008511;28;20037;-84
2021/06/12 01:01:25;;;;;;;22.95;15.30;;;;;;;18.24;89.57;101337.59;5033701;28;20041;-89
2021/06/12 01:03:51;;;;;;;20.23;14.57;;;;;;;18.19;89.81;101340.94;5010331;28;20045;-83
2021/06/12 01:06:20;;;;;;;21.05;15.05;;;;;;;18.24;89.26;101335.72;5017642;28;20146;-84
2021/06/12 01:08:45;;;;;;;22.48;15.88;;;;;;;18.20;89.29;101336.31;5019581;28;20960;-84
2021/06/12 01:11:12;;;;;;;23.52;15.85;;;;;;;18.18;89.38;101332.97;5023774;28;20078;-86
2021/06/12 01:14:08;;;;;;;24.88;15.80;;;;;;;18.19;89.72;101329.22;5021428;28;20037;-88
2021/06/12 01:16:45;;;;;;;25.15;17.63;;;;;;;18.15;90.01;101323.34;5038379;28;20039;-85
2021/06/12 01:19:47;;;;;;;27.85;18.98;;;;;;;18.22;89.85;101321.50;5011244;28;20064;-84
2021/06/12 01:22:21;;;;;;;31.60;19.13;;;;;;;18.17;90.63;101315.84;5023219;28;20128;-87
2021/06/12 01:25:31;;;;;;;28.70;20.23;;;;;;;18.19;89.15;101316.47;5030330;28;20033;-84
2021/06/12 01:28:15;;;;;;;32.75;20.95;;;;;;;18.15;90.22;101331.47;5025890;28;20037;-86
2021/06/12 01:30:43;;;;;;;30.65;20.15;;;;;;;18.09;90.50;101329.56;5013570;28;20050;-85
2021/06/12 01:33:12;;;;;;;31.57;21.27;;;;;;;18.00;92.35;101330.78;5015015;28;20065;-89
2021/06/12 01:35:41;;;;;;;;;;;;;;;18.02;91.69;101323.28;5027207;28;20041;-85
2021/06/12 01:38:12;;;;;;;31.33;19.98;;;;;;;17.92;92.24;101328.22;5019565;28;19913;-85
2021/06/12 01:40:41;;;;;;;33.78;22.33;;;;;;;17.92;91.57;101320.09;5022324;28;20099;-83
2021/06/12 01:43:09;;;;;;;32.53;20.52;;;;;;;17.93;92.73;101317.19;5023842;28;20057;-87
2021/06/12 01:45:36;;;;;;;30.58;20.80;;;;;;;17.88;93.07;101325.06;5026673;28;20050;-82
2021/06/12 01:48:03;;;;;;;28.88;20.35;;;;;;;17.92;91.73;101329.06;5023402;28;20053;-86
2021/06/12 01:50:29;;;;;;;29.73;18.80;;;;;;;17.83;93.40;101329.44;5013874;28;20054;-87
2021/06/12 01:52:57;;;;;;;29.05;19.30;;;;;;;17.85;93.11;101330.91;5020253;28;20359;-84
2021/06/12 01:55:26;;;;;;;29.70;19.67;;;;;;;17.79;93.95;101318.13;5018044;28;20041;-85
2021/06/12 01:57:51;;;;;;;26.88;20.10;;;;;;;17.78;94.10;101313.72;5037046;28;20137;-87
2021/06/12 02:00:17;;;;;;;29.17;19.02;;;;;;;17.80;93.98;101315.22;5026975;28;20395;-87
2021/06/12 02:02:47;;;;;;;32.03;20.27;;;;;;;17.76;93.79;101319.34;5022482;28;20087;-83
2021/06/12 02:05:16;;;;;;;31.42;19.52;;;;;;;17.72;95.00;101314.50;5023082;28;20536;-87
2021/06/12 02:07:44;;;;;;;32.30;20.65;;;;;;;17.74;93.76;101315.13;5024894;28;20557;-86
2021/06/12 02:10:12;;;;;;;28.42;20.83;;;;;;;17.77;92.99;101320.16;5023298;28;20129;-84
2021/06/12 02:12:39;;;;;;;29.15;19.52;;;;;;;17.73;94.06;101314.31;5016222;28;20121;-85
2021/06/12 02:15:08;;;;;;;27.90;18.52;;;;;;;17.74;94.28;101305.13;5018541;28;20046;-84
2021/06/12 02:17:34;;;;;;;27.20;19.03;;;;;;;17.78;92.85;101311.88;5010356;28;20041;-87
2021/06/12 02:20:02;;;;;;;24.52;18.55;;;;;;;17.73;93.45;101308.88;5022311;28;20029;-84
2021/06/12 02:22:28;;;;;;;28.88;18.42;;;;;;;17.71;94.10;101313.66;5025311;28;20095;-85
2021/06/12 02:24:54;;;;;;;28.58;18.92;;;;;;;17.66;95.37;101318.84;5017781;28;20140;-83
2021/06/12 02:27:27;;;;;;;27.88;18.02;;;;;;;17.64;95.49;101318.22;5023796;28;20175;-84
2021/06/12 02:29:55;;;;;;;25.52;17.65;;;;;;;17.65;95.43;101309.03;5016946;28;20091;-86
2021/06/12 02:32:22;;;;;;;29.67;19.42;;;;;;;17.67;94.37;101309.69;5035232;28;20044;-87
2021/06/12 02:34:53;;;;;;;26.75;19.17;;;;;;;17.70;94.13;101309.28;5031827;28;20184;-85
2021/06/12 02:37:19;;;;;;;25.50;17.27;;;;;;;17.62;95.77;101305.88;5024855;28;20049;-84
2021/06/12 02:39:45;;;;;;;26.85;17.58;;;;;;;17.58;96.72;101316.31;5021345;28;20087;-85
2021/06/12 02:42:10;;;;;;;24.35;17.30;;;;;;;17.54;96.47;101318.53;5015654;28;20049;-84
2021/06/12 02:44:36;;;;;;;25.95;18.05;;;;;;;17.60;95.77;101322.34;5035492;28;20367;-86
2021/06/12 02:47:05;;;;;;;25.83;18.00;;;;;;;17.53;96.93;101327.72;4992883;28;20038;-87
2021/06/12 02:49:36;;;;;;;25.17;18.08;;;;;;;17.52;97.60;101330.63;5020651;28;20125;-85
2021/06/12 02:52:06;;;;;;;25.90;18.10;;;;;;;17.50;97.89;101327.28;5024012;28;20110;-86
2021/06/12 02:54:33;;;;;;;27.80;18.35;;;;;;;17.55;97.15;101324.81;5032385;28;20044;-86
2021/06/12 02:56:59;;;;;;;24.23;17.50;;;;;;;17.56;97.21;101312.94;5029044;28;20038;-85
2021/06/12 02:59:28;;;;;;;25.95;18.45;;;;;;;17.58;96.96;101300.03;5012120;28;20810;-87
2021/06/12 03:01:55;;;;;;;25.20;17.23;;;;;;;17.57;97.10;101287.47;5013287;28;20173;-85
2021/06/12 03:04:21;;;;;;;26.65;16.17;;;;;;;17.56;97.69;101283.91;5020213;28;20033;-82
2021/06/12 03:06:50;;;;;;;26.08;17.50;;;;;;;17.61;96.52;101286.06;5003396;28;20034;-84
2021/06/12 03:09:19;;;;;;;23.70;17.15;;;;;;;17.62;96.94;101282.28;5017079;28;20037;-86
2021/06/12 03:11:46;;;;;;;27.13;17.65;;;;;;;17.63;96.27;101293.97;5012170;28;20403;-84
2021/06/12 03:14:13;;;;;;;24.90;17.10;;;;;;;17.58;97.75;101291.88;5023063;28;20113;-84
2021/06/12 03:16:45;;;;;;;26.35;17.08;;;;;;;17.59;96.99;101294.38;5024799;28;20045;-85
2021/06/12 03:19:13;;;;;;;23.05;15.85;;;;;;;17.52;98.61;101290.78;4995466;28;20410;-83
2021/06/12 03:21:38;;;;;;;24.48;16.40;;;;;;;17.50;99.33;101286.59;5026048;28;20049;-84
2021/06/12 03:24:05;;;;;;;23.75;16.63;;;;;;;17.65;97.56;101297.34;5020087;28;20049;-86
2021/06/12 03:26:33;;;;;;;23.38;16.65;;;;;;;17.63;97.18;101294.81;5025334;28;20112;-84
2021/06/12 03:29:02;;;;;;;23.23;16.23;;;;;;;17.59;98.05;101296.25;5022574;28;20087;-86
2021/06/12 03:31:29;;;;;;;21.13;15.77;;;;;;;17.60;97.34;101287.91;5016569;28;20284;-84
2021/06/12 03:33:54;;;;;;;22.35;17.13;;;;;;;17.68;97.19;101289.63;5027387;28;20048;-82
2021/06/12 03:36:20;;;;;;;22.02;15.82;;;;;;;17.64;97.05;101288.38;5032960;28;20059;-83
2021/06/12 03:38:46;;;;;;;23.25;17.15;;;;;;;17.68;96.75;101294.22;5044884;28;20115;-83
2021/06/12 03:41:12;;;;;;;21.15;16.10;;;;;;;17.66;97.10;101291.69;5049667;28;20119;-82
2021/06/12 03:43:38;;;;;;;26.20;15.95;;;;;;;17.69;96.46;101288.59;5035811;28;20482;-84
2021/06/12 03:46:06;;;;;;;23.38;16.30;;;;;;;17.75;95.88;101295.09;5040684;28;20189;-86
2021/06/12 03:48:34;;;;;;;22.00;16.08;;;;;;;17.66;96.96;101291.69;5036018;28;20087;-84
2021/06/12 03:51:00;;;;;;;24.08;16.27;;;;;;;17.73;96.79;101297.19;5056662;28;20108;-86
2021/06/12 03:53:43;;;;;;;25.02;16.88;;;;;;;17.72;96.20;101288.22;5020464;28;20037;-84
2021/06/12 03:56:09;;;;;;;26.60;16.42;;;;;;;17.74;96.70;101288.00;5032312;28;20119;-86
2021/06/12 03:58:34;;;;;;;24.42;16.88;;;;;;;17.76;96.17;101289.47;5016433;28;20073;-86
2021/06/12 04:01:00;;;;;;;22.13;14.50;;;;;;;17.74;96.44;101288.00;5023612;28;20062;-84
2021/06/12 04:03:26;;;;;;;22.77;15.23;;;;;;;17.73;97.01;101292.59;5022475;28;20045;-85
2021/06/12 04:05:52;;;;;;;22.08;16.17;;;;;;;17.74;96.39;101302.41;4997078;28;20309;-84
2021/06/12 04:08:18;;;;;;;23.52;15.43;;;;;;;17.74;96.35;101293.44;5038932;28;20037;-85
2021/06/12 04:10:44;;;;;;;23.67;15.18;;;;;;;17.78;95.60;101300.16;5040547;28;20445;-85
2021/06/12 04:13:11;;;;;;;20.63;14.60;;;;;;;17.74;96.49;101299.69;5034870;28;20046;-87
2021/06/12 04:15:38;;;;;;;25.25;15.23;;;;;;;17.70;96.93;101303.84;5016818;28;20143;-84
2021/06/12 04:18:07;;;;;;;23.10;15.57;;;;;;;17.74;97.03;101293.44;5013871;28;20414;-86
2021/06/12 04:20:34;;;;;;;;;;;;;;;17.69;96.80;101299.44;5018342;28;20051;-81
2021/06/12 04:23:00;;;;;;;22.77;14.88;;;;;;;17.66;97.63;101301.72;5035420;28;20039;-89
2021/06/12 04:25:25;;;;;;;21.50;13.75;;;;;;;17.63;97.91;101292.09;5015230;28;20044;-85
2021/06/12 04:27:51;;;;;;;23.05;15.00;;;;;;;17.71;96.49;101291.94;5026486;28;20119;-84
2021/06/12 04:30:19;;;;;;;20.05;13.65;;;;;;;17.73;96.47;101298.03;5009281;28;20053;-84
2021/06/12 04:32:45;;;;;;;24.95;14.52;;;;;;;17.73;96.48;101289.06;5001885;28;20049;-84
2021/06/12 04:35:11;;;;;;;18.88;12.88;;;;;;;17.74;96.37;101299.69;5020339;28;20513;-84
2021/06/12 04:37:37;;;;;;;21.65;13.75;;;;;;;17.73;96.15;101306.16;5028510;28;20046;-83
2021/06/12 04:40:04;;;;;;;21.98;13.30;;;;;;;17.72;96.52;101309.06;5001259;28;20076;-85
2021/06/12 04:42:36;;;;;;;21.27;12.38;;;;;;;17.71;96.72;101324.50;5017609;28;21430;-87
2021/06/12 04:45:02;;;;;;;19.13;12.52;;;;;;;17.68;96.81;101321.38;5018841;28;20061;-83
2021/06/12 04:47:28;;;;;;;20.85;13.52;;;;;;;17.65;96.89;101321.75;5017066;28;20045;-84
2021/06/12 04:49:54;;;;;;;21.40;13.35;;;;;;;17.64;97.34;101320.94;4980536;28;20486;-84
2021/06/12 04:52:20;;;;;;;21.38;12.57;;;;;;;17.67;96.46;101317.81;5013743;28;20664;-84
2021/06/12 04:54:45;;;;;;;22.27;12.27;;;;;;;17.63;97.11;101324.66;5019778;28;20045;-85
2021/06/12 04:57:11;;;;;;;20.90;12.82;;;;;;;17.59;97.12;101329.66;5019557;28;20092;-85
2021/06/12 04:59:36;;;;;;;20.63;12.48;;;;;;;17.56;97.18;101313.78;5024420;28;20037;-85
2021/06/12 05:02:01;;;;;;;20.52;12.18;;;;;;;17.56;96.78;101321.06;5016764;28;20037;-84
2021/06/12 05:04:27;;;;;;;23.58;13.10;;;;;;;17.55;96.73;101308.53;5024788;28;20640;-85
2021/06/12 05:06:52;;;;;;;21.55;12.60;;;;;;;17.57;97.07;101326.28;4998342;28;20076;-85
2021/06/12 05:09:17;;;;;;;20.90;12.57;;;;;;;17.62;96.40;101328.44;5023903;28;20105;-84
2021/06/12 05:11:43;;;;;;;23.45;12.98;;;;;;;17.54;97.52;101332.13;5023187;28;20049;-84
2021/06/12 05:14:09;;;;;;;19.33;11.73;;;;;;;17.49;97.63;101320.16;5038673;28;20057;-84
2021/06/12 05:16:36;;;;;;;20.27;12.82;;;;;;;17.49;98.02;101339.16;5006531;28;20088;-85
2021/06/12 05:19:02;;;;;;;20.73;13.45;;;;;;;17.53;97.04;101335.88;5018298;28;20041;-84
2021/06/12 05:21:35;;;;;;;18.95;13.00;;;;;;;17.52;97.75;101330.63;5027870;28;20096;-84
2021/06/12 05:24:01;;;;;;;18.33;12.30;;;;;;;17.49;98.26;101339.16;5029469;28;20057;-86
2021/06/12 05:26:29;;;;;;;23.00;13.05;;;;;;;17.53;98.50;101340.47;4992034;28;20056;-85
2021/06/12 05:28:54;;;;;;;19.08;12.68;;;;;;;17.51;98.04;101332.50;5036936;28;20042;-85
2021/06/12 05:31:21;;;;;;;20.65;12.18;;;;;;;17.54;98.50;101336.72;5009268;28;20046;-84
2021/06/12 05:33:46;;;;;;;21.70;13.30;;;;;;;17.52;98.60;101347.78;5017953;28;20057;-86
2021/06/12 05:36:12;;;;;;;23.67;14.18;;;;;;;17.56;97.75;101346.34;5053295;28;20048;-88
2021/06/12 05:38:37;;;;;;;21.10;14.45;;;;;;;17.63;97.93;101340.13;5033483;28;20238;-84
2021/06/12 05:41:03;;;;;;;25.50;14.43;;;;;;;17.60;98.32;101347.59;5005838;28;20033;-89
2021/06/12 05:43:28;;;;;;;24.10;15.02;;;;;;;17.60;98.57;101346.78;5023742;28;20045;-85
2021/06/12 05:45:54;;;;;;;22.42;14.07;;;;;;;17.63;97.64;101349.09;4983504;28;20037;-88
2021/06/12 05:48:19;;;;;;;25.00;15.77;;;;;;;17.64;97.76;101347.25;4988230;28;20109;-85
2021/06/12 05:50:45;;;;;;;26.17;16.23;;;;;;;17.67;97.73;101355.81;5017979;28;20042;-87
2021/06/12 05:53:10;;;;;;;24.77;14.98;;;;;;;17.63;98.18;101351.81;5028605;28;20064;-82
2021/06/12 05:55:36;;;;;;;25.70;14.65;;;;;;;17.66;97.80;101343.25;5022973;28;20038;-88
2021/06/12 05:58:01;;;;;;;24.90;15.23;;;;;;;17.71;96.94;101348.94;5021796;28;20041;-88
2021/06/12 06:00:27;;;;;;;27.52;16.35;;;;;;;17.69;96.62;101359.16;5028876;28;20037;-87
2021/06/12 06:02:53;;;;;;;25.67;15.48;;;;;;;17.73;97.08;101363.16;5008227;28;20129;-86
2021/06/12 06:05:18;;;;;;;23.73;15.05;;;;;;;17.73;97.45;101362.34;5014679;28;20116;-85
2021/06/12 06:07:44;;;;;;;22.65;15.00;;;;;;;17.65;98.42;101355.16;5036264;28;20465;-85
2021/06/12 06:10:09;;;;;;;24.73;15.20;;;;;;;17.66;98.14;101351.41;5002537;28;20141;-88
2021/06/12 06:12:35;;;;;;;26.63;15.40;;;;;;;17.66;99.38;101359.53;5021468;28;20096;-86
2021/06/12 06:15:01;;;;;;;25.92;15.65;;;;;;;17.63;99.71;101357.22;5017606;28;20494;-83
2021/06/12 06:17:27;;;;;;;24.67;15.75;;;;;;;17.64;99.53;101361.63;5031320;28;20513;-83
2021/06/12 06:19:52;;;;;;;27.58;17.10;;;;;;;17.58;100.00;101355.13;5008313;28;20033;-85
2021/06/12 06:22:17;;;;;;;27.63;17.70;;;;;;;17.62;100.00;101361.00;5028648;28;20120;-85
2021/06/12 06:24:43;;;;;;;29.25;16.23;;;;;;;17.59;100.00;101355.97;5025377;28;20104;-84
2021/06/12 06:27:09;;;;;;;28.05;17.35;;;;;;;17.62;100.00;101358.28;5016767;28;20042;-84
2021/06/12 06:29:34;;;;;;;27.42;17.58;;;;;;;17.66;100.00;101351.41;5023339;28;20045;-85
2021/06/12 06:32:00;;;;;;;29.75;19.05;;;;;;;17.70;100.00;101351.88;5028931;28;20106;-82
2021/06/12 06:34:25;;;;;;;27.27;18.10;;;;;;;17.71;100.00;101338.09;5022292;28;20557;-84
2021/06/12 06:36:51;;;;;;;29.20;18.17;;;;;;;17.80;99.66;101353.22;5037671;28;20330;-85
2021/06/12 06:39:16;;;;;;;26.48;16.80;;;;;;;17.85;99.88;101338.22;5017973;28;20044;-86
2021/06/12 06:41:42;;;;;;;30.75;18.45;;;;;;;17.96;99.10;101345.81;5027976;28;20045;-84
2021/06/12 06:44:07;;;;;;;29.85;17.98;;;;;;;17.98;97.61;101355.44;5027701;28;20046;-87
2021/06/12 06:46:33;;;;;;;26.90;18.08;;;;;;;17.96;97.80;101352.06;5013666;28;20041;-84
2021/06/12 06:48:58;;;;;;;28.60;19.92;;;;;;;17.94;97.77;101342.44;5038437;28;20048;-86
2021/06/12 06:51:24;;;;;;;31.55;21.17;;;;;;;17.99;97.80;101335.38;5035131;28;20045;-86
2021/06/12 06:53:49;;;;;;;28.75;20.42;;;;;;;18.10;96.76;101354.88;5004071;28;20037;-86
2021/06/12 06:56:15;;;;;;;27.45;19.75;;;;;;;18.20;95.95;101360.78;5019254;28;20041;-85
2021/06/12 06:58:40;;;;;;;30.33;21.00;;;;;;;18.29;94.62;101353.28;5011421;28;20062;-86
2021/06/12 07:01:07;;;;;;;29.20;19.70;;;;;;;18.31;94.04;101364.81;5019636;28;20286;-85
2021/06/12 07:03:32;;;;;;;26.90;19.48;;;;;;;18.29;93.54;101367.72;5019085;28;20077;-86
2021/06/12 07:05:58;;;;;;;26.45;19.90;;;;;;;18.33;93.05;101357.31;5016514;28;20522;-87
2021/06/12 07:08:23;;;;;;;26.77;19.60;;;;;;;18.39;93.40;101375.50;5012220;28;20065;-84
2021/06/12 07:10:50;;;;;;;27.30;21.20;;;;;;;18.54;92.24;101380.81;5019027;28;20365;-89
2021/06/12 07:13:22;;;;;;;24.58;19.27;;;;;;;18.62;91.52;101367.88;5028419;28;20498;-84
2021/06/12 07:15:48;;;;;;;26.38;19.17;;;;;;;18.70;91.47;101358.69;5027417;28;20037;-85
2021/06/12 07:18:14;;;;;;;25.27;19.38;;;;;;;18.71;91.48;101366.66;5014207;28;20171;-85
2021/06/12 07:20:48;;;;;;;24.52;19.73;;;;;;;18.79;88.26;101357.50;5020817;28;20052;-88
2021/06/12 07:23:16;;;;;;;23.42;17.65;;;;;;;18.84;88.78;101371.31;5022558;28;20042;-87
2021/06/12 07:25:43;;;;;;;24.48;18.55;;;;;;;18.81;88.71;101362.72;5038531;28;20504;-85
2021/06/12 07:28:09;;;;;;;24.38;18.55;;;;;;;18.87;87.87;101370.06;5033265;28;20093;-84
2021/06/12 07:30:39;;;;;;;24.80;17.30;;;;;;;19.01;88.35;101379.94;5019818;28;20080;-85
2021/06/12 07:33:09;;;;;;;21.27;17.52;;;;;;;19.10;86.60;101375.13;5028841;28;20037;-86
2021/06/12 07:35:36;;;;;;;25.25;18.10;;;;;;;19.15;86.92;101375.34;5023759;28;20055;-85
2021/06/12 07:38:03;;;;;;;23.80;17.88;;;;;;;19.19;87.02;101381.22;5036162;28;20037;-87
2021/06/12 07:40:30;;;;;;;25.63;16.50;;;;;;;19.10;86.82;101369.69;5019713;28;20684;-86
2021/06/12 07:42:56;;;;;;;25.58;18.10;;;;;;;19.12;86.92;101373.88;5023409;28;20044;-86
2021/06/12 07:45:24;;;;;;;21.20;16.45;;;;;;;19.20;86.79;101375.56;5019463;28;20041;-87
2021/06/12 07:47:50;;;;;;;21.27;15.85;;;;;;;19.30;86.02;101372.44;5021447;28;20053;-85
2021/06/12 07:50:17;;;;;;;17.35;14.07;;;;;;;19.38;85.24;101366.81;5034022;28;20049;-87
2021/06/12 07:52:42;;;;;;;17.77;14.18;;;;;;;19.45;84.38;101367.66;5013259;28;20046;-90
2021/06/12 07:55:10;;;;;;;19.13;15.15;;;;;;;19.52;83.37;101368.47;5006944;28;20062;-83
2021/06/12 07:57:35;;;;;;;17.75;12.60;;;;;;;19.55;82.21;101362.63;5019525;28;20107;-84
2021/06/12 08:00:01;;;;;;;17.60;12.55;;;;;;;19.58;81.22;101353.19;5031025;28;20402;-86
2021/06/12 08:02:29;;;;;;;13.98;11.55;;;;;;;19.69;80.39;101373.53;5029257;28;20049;-86
2021/06/12 08:04:55;;;;;;;13.20;10.00;;;;;;;19.77;79.25;101371.44;5001489;28;20029;-86
2021/06/12 08:07:20;;;;;;;16.52;11.20;;;;;;;19.85;79.44;101378.53;5000190;28;20447;-87
2021/06/12 08:09:46;;;;;;;15.10;10.70;;;;;;;19.92;79.17;101382.09;5008486;28;20053;-86
2021/06/12 08:12:13;;;;;;;13.82;9.75;;;;;;;19.84;77.56;101390.50;5003355;28;20050;-87
2021/06/12 08:14:38;;;;;;;13.18;8.82;;;;;;;19.80;76.29;101381.91;5006562;28;20124;-87
2021/06/12 08:17:04;;;;;;;14.20;8.13;;;;;;;19.78;75.99;101391.34;5018395;28;20091;-84
2021/06/12 08:19:29;;;;;;;12.45;7.88;;;;;;;19.75;75.29;101394.47;5028863;28;20048;-85
2021/06/12 08:21:55;;;;;;;11.43;7.47;;;;;;;19.77;75.38;101397.84;5029214;28;20136;-85
2021/06/12 08:24:20;;;;;;;14.95;8.13;;;;;;;19.77;74.12;101400.56;5009562;28;20148;-84
2021/06/12 08:26:46;;;;;;;10.70;6.25;;;;;;;19.84;74.50;101404.09;5033678;28;20107;-85
2021/06/12 08:29:11;;;;;;;7.22;5.90;;;;;;;19.80;72.81;101409.13;5005201;28;20036;-89
2021/06/12 08:31:37;;;;;;;7.50;5.47;;;;;;;19.73;73.10;101411.00;5023915;28;20685;-88
2021/06/12 08:34:03;;;;;;;9.65;5.70;;;;;;;19.71;73.66;101415.84;5021299;28;20103;-85
2021/06/12 08:36:29;;;;;;;8.43;5.93;;;;;;;19.68;73.18;101426.28;5018233;28;20046;-86
2021/06/12 08:38:54;;;;;;;8.65;5.70;;;;;;;19.63;73.39;101428.81;5017806;28;20044;-84
2021/06/12 08:41:20;;;;;;;9.60;5.88;;;;;;;19.67;74.06;101420.03;5033119;28;20165;-86
2021/06/12 08:43:47;;;;;;;6.25;4.85;;;;;;;19.72;72.42;101424.84;5023166;28;20038;-84
2021/06/12 08:46:13;;;;;;;9.32;4.82;;;;;;;19.71;72.56;101432.19;5012664;28;20562;-88
2021/06/12 08:48:39;;;;;;;7.97;4.93;;;;;;;19.80;70.66;101439.09;5024567;28;20117;-87
2021/06/12 08:51:04;;;;;;;5.97;4.25;;;;;;;19.90;69.82;101435.09;5016332;28;20065;-87
2021/06/12 08:53:32;;;;;;;7.47;4.20;;;;;;;19.90;70.31;101435.94;5013173;28;20486;-86
2021/06/12 08:55:59;;;;;;;7.03;4.28;;;;;;;19.88;69.53;101427.16;5027710;28;20036;-88
2021/06/12 08:58:24;;;;;;;8.68;4.68;;;;;;;19.97;69.04;101425.88;5040727;28;20103;-86
2021/06/12 09:00:50;;;;;;;6.15;4.68;;;;;;;20.11;69.08;101418.53;5022379;28;20041;-84
2021/06/12 09:03:15;;;;;;;8.63;5.00;;;;;;;20.19;68.65;101412.84;4998010;28;20052;-85
2021/06/12 09:05:48;;;;;;;7.20;4.63;;;;;;;20.33;67.74;101408.19;5034996;28;20517;-83
2021/06/12 09:08:17;;;;;;;9.02;4.50;;;;;;;20.37;65.15;101411.34;5026608;28;20049;-85
2021/06/12 09:10:56;;;;;;;7.20;4.50;;;;;;;20.48;65.49;101421.56;5033559;28;20120;-85
2021/06/12 09:13:37;;;;;;;8.25;4.80;;;;;;;20.50;65.07;101416.75;4983936;28;20057;-88
2021/06/12 09:16:04;;;;;;;7.70;4.18;;;;;;;20.55;65.70;101416.16;5011386;28;20460;-87
2021/06/12 09:18:42;;;;;;;7.43;4.35;;;;;;;20.61;65.25;101426.19;5008001;28;20037;-89
2021/06/12 09:21:09;;;;;;;5.93;3.97;;;;;;;20.61;63.76;101426.19;5017033;28;20106;-87
2021/06/12 09:23:40;;;;;;;8.25;4.45;;;;;;;20.59;63.95;101422.84;5034133;28;20077;-86
2021/06/12 09:26:08;;;;;;;7.47;4.63;;;;;;;20.45;63.77;101433.75;5013724;28;20034;-87
2021/06/12 09:28:47;;;;;;;8.57;4.65;;;;;;;20.47;64.95;101428.91;5012988;28;20049;-85
2021/06/12 09:31:21;;;;;;;7.57;4.57;;;;;;;20.41;64.47;101431.69;5015831;28;20062;-86
2021/06/12 09:33:47;;;;;;;8.85;4.38;;;;;;;20.32;64.86;101433.78;5028755;28;20092;-87
2021/06/12 09:36:13;;;;;;;8.00;4.50;;;;;;;20.33;65.29;101435.47;5002837;28;20050;-87
2021/06/12 09:38:41;;;;;;;7.82;4.72;;;;;;;20.32;65.52;101443.88;5029835;28;20049;-90
2021/06/12 09:41:28;;;;;;;6.90;4.50;;;;;;;20.33;63.72;101440.91;5027714;28;20045;-87
2021/06/12 09:43:55;;;;;;;8.32;4.10;;;;;;;20.42;65.15;101450.53;5011489;28;20045;-87
2021/06/12 09:46:44;;;;;;;8.68;4.00;;;;;;;20.44;63.41;101442.97;5020492;28;20072;-85
2021/06/12 09:49:11;;;;;;;7.97;4.35;;;;;;;20.57;62.93;101430.38;5004134;28;20516;-89
2021/06/12 09:51:37;;;;;;;5.78;3.70;;;;;;;20.57;61.98;101450.34;5033378;28;20049;-87
2021/06/12 09:54:05;;;;;;;6.78;4.25;;;;;;;20.64;60.42;101439.41;5018099;28;20116;-86
2021/06/12 09:56:32;;;;;;;7.88;3.92;;;;;;;20.70;61.55;101446.72;5019716;28;20080;-86
2021/06/12 09:58:59;;;;;;;5.78;4.20;;;;;;;20.86;60.23;101446.22;5019003;28;20254;-87
2021/06/12 10:01:30;;;;;;;7.53;3.70;;;;;;;20.89;61.26;101447.69;5024732;28;20045;-86
2021/06/12 10:04:13;;;;;;;7.03;3.90;;;;;;;20.85;60.36;101455.44;5014935;28;20440;-86
2021/06/12 10:06:38;;;;;;;5.20;3.88;;;;;;;20.67;60.75;101456.16;5022623;28;20045;-86
2021/06/12 10:09:05;;;;;;;7.90;3.92;;;;;;;20.55;60.57;101455.16;5020160;28;20116;-87
2021/06/12 10:11:32;;;;;;;6.40;3.70;;;;;;;20.51;61.19;101457.44;5015582;28;20121;-88
2021/06/12 10:13:59;;;;;;;7.25;3.70;;;;;;;20.64;60.12;101461.22;5007271;28;20490;-85
2021/06/12 10:16:26;;;;;;;7.82;4.03;;;;;;;20.78;59.56;101462.84;5014968;28;20103;-90
2021/06/12 10:18:52;;;;;;;6.13;3.30;;;;;;;20.69;59.24;101454.06;5013334;28;20096;-85
2021/06/12 10:21:18;;;;;;;5.57;3.40;;;;;;;20.66;57.86;101470.03;5018876;28;20061;-88
2021/06/12 10:23:46;;;;;;;4.53;3.20;;;;;;;20.68;57.30;101476.06;5013679;28;20088;-85
2021/06/12 10:26:14;;;;;;;4.72;3.08;;;;;;;20.69;57.78;101473.16;5014522;28;20061;-86
2021/06/12 10:28:39;;;;;;;7.45;3.22;;;;;;;20.69;56.96;101483.22;5013274;28;20046;-88
2021/06/12 10:31:14;;;;;;;6.10;2.92;;;;;;;20.72;57.19;101477.34;5021379;28;20046;-86
2021/06/12 10:33:42;;;;;;;5.40;2.75;;;;;;;20.80;57.46;101477.09;5021566;28;20551;-86
2021/06/12 10:36:16;;;;;;;7.65;2.90;;;;;;;20.99;56.78;101488.16;5009598;28;20087;-86
2021/06/12 10:38:43;;;;;;;6.38;2.95;;;;;;;21.17;55.98;101480.06;5028647;28;20309;-87
2021/06/12 10:41:20;;;;;;;8.57;3.00;;;;;;;21.24;53.59;101486.34;5023872;28;20029;-88
2021/06/12 10:43:46;;;;;;;5.32;2.67;;;;;;;21.15;54.97;101483.03;5024914;28;20517;-89
2021/06/12 10:46:19;;;;;;;5.55;2.70;;;;;;;21.20;53.30;101485.09;5018912;28;20057;-89
2021/06/12 10:49:01;;;;;;;5.18;2.72;;;;;;;21.21;53.50;101485.94;5019681;28;20726;-88
2021/06/12 10:51:28;;;;;;;4.82;2.50;;;;;;;21.26;54.87;101476.06;5026409;28;20056;-90
2021/06/12 10:54:08;;;;;;;5.38;2.80;;;;;;;21.39;53.38;101476.00;5028395;28;20512;-87
2021/06/12 10:56:39;;;;;;;7.07;2.70;;;;;;;21.48;52.82;101478.47;5010934;28;20037;-88
2021/06/12 10:59:05;;;;;;;6.53;2.78;;;;;;;21.45;53.65;101481.63;5020588;28;20042;-87
2021/06/12 11:01:30;;;;;;;6.03;2.75;;;;;;;21.47;53.71;101485.00;5015742;28;20053;-86
2021/06/12 11:04:14;;;;;;;5.90;2.65;;;;;;;21.67;53.48;101474.78;5003420;28;20042;-86
2021/06/12 11:09:14;;;;;;;6.70;2.55;;;;;;;21.70;51.99;101481.69;5006734;28;20479;-87
2021/06/12 11:11:47;;;;;;;6.15;2.85;;;;;;;21.72;52.20;101488.59;5019579;28;20127;-87
2021/06/12 11:14:21;;;;;;;7.75;2.90;;;;;;;21.65;51.75;101481.50;5017512;28;20236;-86
2021/06/12 11:17:09;;;;;;;5.65;2.42;;;;;;;21.72;52.65;101490.47;5035843;28;20045;-84
2021/06/12 11:19:39;;;;;;;6.50;3.25;;;;;;;21.69;54.43;101483.56;5031646;28;20042;-85